SiktMolnbas
>≥ 10km≥ 10km ≥ 2000ft≥ 2000ft
< 10km< 10km < 2000ft< 2000ft
< 8km< 8km < 1500ft< 1500ft
< 5km< 5km < 1000ft< 1000ft
< 3km< 3km < 500ft< 500ft

Nytt 18 jan 2017:

Nytt 17 jan 2017:

ESNQ (22:50 UTC)

Kiruna flygplats

METAR

ESNQ 202250Z AUTO 22013KT 9999 OVC210/// 09/03 Q1011=

TAF

ESNQ 202030Z 2021/2023 23014KT CAVOK=

ESNG (22:50 UTC)

Gällivare (Kavaheden), Lapland Airport

METAR

ESNG 202250Z AUTO 23010KT 190V260 9999 BKN098/// 12/03 Q1014=

TAF

ESNG 202000Z NIL=

ESPA (22:50 UTC)

Luleå Airport (Kallax)

METAR

ESPA 202250Z AUTO 13005KT 9999 NCD 08/05 Q1018=

TAF

ESPA 202030Z 2021/2023 17004KT CAVOK=

ESNL (22:50 UTC)

Lycksele flygplats

METAR

ESNL 202250Z AUTO 00000KT 9999 NCD 06/03 Q1019=

TAF

ESNL 202000Z NIL=

ESNU (22:50 UTC)

Umeå City Airport

METAR

ESNU 202250Z 00000KT CAVOK 04/04 Q1019=

TAF

ESNU 202330Z 2100/2109 VRB02KT CAVOK=

ESNO (22:50 UTC)

Örnsköldsvik flygplats

METAR

ESNO 202250Z AUTO 30002KT 9999 SCT180/// 06/05 Q1019=

TAF

ESNO 202000Z NIL=

ESNK (22:50 UTC)

Kramfors-Sollefteå flygplats

METAR

ESNK 202250Z AUTO 16004KT 9999 SCT170/// OVC200/// 13/05 Q1019=

TAF

ESNK 202000Z NIL=

ESNN (22:50 UTC)

Sundsvall-Härnösands flygplats (Midlanda)

METAR

ESNN 202250Z AUTO VRB01KT 9999 NCD 09/06 Q1020=

TAF

ESNN 202000Z NIL=

ESNZ (22:50 UTC)

Åre Östersund Airport (Frösön)

METAR

ESNZ 202250Z AUTO 21004KT 9999 NCD 15/M02 Q1020=

TAF

ESNZ 202000Z NIL=

ESNS (22:50 UTC)

Skellefteå flygplats

METAR

ESNS 202250Z AUTO 19005KT 9999 NCD 12/08 Q1018=

TAF

ESNS 202000Z NIL=

ESGG (22:50 UTC)

Göteborg-Landvetter flygplats

METAR

ESGG 202250Z 00000KT CAVOK 12/07 Q1027=

TAF

ESGG 202330Z 2100/2124 14002KT CAVOK PROB40 2113/2118 24010KT=

ESMT (22:50 UTC)

Halmstads flygplats

METAR

ESMT 202250Z AUTO 11003KT 080V150 9999 NCD 12/M00 Q1028=

TAF

ESMT 202000Z NIL=

ESTA (22:50 UTC)

Ängelholm-Helsingborg flygplats

METAR

ESTA 202250Z AUTO 09003KT 9999 NCD 09/02 Q1028=

TAF

ESTA 202001Z 2021/2023 16005KT CAVOK=

ESTL (22:50 UTC)

Ljungbyheds flygplats

METAR

ESTL 202250Z AUTO 08003KT 9999 NCD 06/03 Q1028=

TAF

ESTL 202000Z NIL=

ESMS (22:50 UTC)

Malmö Airport

METAR

ESMS 202250Z 10006KT CAVOK 08/03 Q1028=

TAF

ESMS 201701Z 2018/2118 12008KT CAVOK=

ESMK (22:50 UTC)

Kristianstad Airport

METAR

ESMK 202250Z AUTO 29001KT 2500 NCD 04/04 Q1028=

TAF

ESMK 202000Z NIL=

ESDF (22:50 UTC)

Ronneby flygplats

METAR

ESDF 202250Z AUTO 02004KT 9999 NCD 05/04 Q1029=

TAF

ESDF 202000Z NIL=

ESMQ (22:50 UTC)

Kalmar Airport

METAR

ESMQ 202250Z AUTO 00000KT 9999 NCD 06/05 Q1029=

TAF

ESMQ 202000Z NIL=

ESMX (22:50 UTC)

Växjö, Smaland Airport

METAR

ESMX 202250Z AUTO 17002KT 9999 NCD 07/01 Q1029=

TAF

ESMX 202000Z NIL=

ESGJ (22:50 UTC)

Jönköping Airport

METAR

ESGJ 202250Z AUTO 24003KT 9999 NCD 10/02 Q1028=

TAF

ESGJ 202000Z NIL=

ESSA (22:50 UTC)

Stockholm-Arlanda flygplats

METAR

ESSA 202250Z 18005KT CAVOK 13/06 Q1026 NOSIG=

TAF

ESSA 202330Z 2100/2124 21004KT CAVOK=

ESSB (22:50 UTC)

Stockholm-Bromma flygplats

METAR

ESSB 202250Z AUTO 11003KT 9999 NCD 11/07 Q1026=

TAF

ESSB 201730Z 2018/2020 19008KT CAVOK=

ESKN (22:50 UTC)

Stockholm-Skavsta flygplats

METAR

ESKN 202250Z 25002KT CAVOK 15/07 Q1026=

TAF

ESKN 202330Z 2100/2124 28002KT CAVOK BECMG 2110/2112 17010KT=

ESSP (22:50 UTC)

Norrköping flygplats

METAR

ESSP 202250Z AUTO 32001KT 9999 NCD 10/07 Q1027=

TAF

ESSP RRA 201730Z 2018/2022 28006KT CAVOK=

ESSL (22:50 UTC)

Linköping - SAAB Flygplats

METAR

ESSL 202250Z AUTO 21004KT 180V250 9999 NCD 15/05 Q1027=

TAF

ESSL RRB 201930Z 2020/2022 28003KT CAVOK=

ESSV (22:50 UTC)

Visby flygplats

METAR

ESSV 202250Z AUTO 24009KT 9999 NCD 14/03 Q1028=

TAF

ESSV RRA 201730Z 2018/2022 22008KT CAVOK=

ESOW (22:50 UTC)

Stockholm-Västerås flygplats

METAR

ESOW 202250Z AUTO 22005KT 9999 NCD 13/05 Q1026=

TAF

ESOW 201700Z NIL=

ESOE (22:50 UTC)

Örebro flygplats

METAR

ESOE 202250Z AUTO 19004KT 9999 NCD 12/08 Q1026=

TAF

ESOE 202330Z 2100/2109 22003KT CAVOK=

ESOK (22:50 UTC)

Karlstad Airport

METAR

ESOK 202250Z AUTO 21006KT 9999 NCD 12/06 Q1026=

TAF

ESOK RRA 201730Z 2018/2021 18010KT CAVOK BECMG 2018/2020 25004KT=

ESSD (22:50 UTC)

Borlänge, Dala Airport

METAR

ESSD 202250Z AUTO 24007KT 9999 NCD 14/05 Q1025=

TAF

ESSD 201700Z NIL=

ESGR (22:50 UTC)

Skövde flygplats

METAR

ESGR 202250Z AUTO 21004KT 9999 NCD 11/06 Q1027=

TAF

Ingen TAF hittades.

ESIB (22:50 UTC)

Såtenäs

METAR

ESIB 202250Z AUTO 19005KT 9999 NCD 12/09 Q1027=

TAF

ESIB 202000Z NIL=

ESST (22:50 UTC)

Torsby flygplats (Fryklanda)

METAR

ESST 202250Z AUTO VRB03KT 9999 NCD 14/07 Q1025=

TAF

Ingen TAF hittades.

ESUT (22:50 UTC)

Hemavans flygplats

METAR

ESUT 202250Z AUTO 27006KT 220V320 9999 BKN170/// 10/05 Q1019=

TAF

ESUT 202000Z NIL=

ESNX (22:50 UTC)

Arvidsjaur flygplats

METAR

ESNX 202250Z AUTO 26006KT 9999 SCT100/// 13/01 Q1018=

TAF

ESNX 202000Z NIL=

ESIA (22:50 UTC)

Karlsborg

METAR

ESIA 202250Z AUTO VRB01KT 9999 NCD 13/09 Q1027=

TAF

ESIA 202000Z NIL=

ESUP (22:50 UTC)

Pajala

METAR

ESUP 202250Z AUTO /////KT 9999 NCD ///// Q////=

TAF

Ingen TAF hittades.

ESPE (22:50 UTC)

Vidsel

METAR

ESPE 202250Z AUTO 21003KT 180V240 9999 BKN190/// 11/04 Q1017=

TAF

ESPE 202000Z NIL=

ESCM (22:50 UTC)

Uppsala

METAR

ESCM 202250Z AUTO 23006KT 9999 NCD 14/04 Q1025=

TAF

ESCM 202000Z NIL=

ESKM (22:50 UTC)

Mora/Siljan

METAR

ESKM 202250Z AUTO 21005KT 9999 NCD 15/06 Q1024=

TAF

Ingen TAF hittades.

EKRN (22:50 UTC)

Bornholm Airport

METAR

EKRN 202250Z AUTO 07008KT 9999NDV NCD 10/03 Q1028=

TAF

EKRN 201721Z 2018/2022 06006KT CAVOK=

EFIV (22:50 UTC)

Ivalo Airport

METAR

EFIV 202250Z AUTO 22009KT CAVOK 12/06 Q1011=

TAF

EFIV 202000Z NIL=

EFKT (22:50 UTC)

Kittilä Airport

METAR

EFKT 202250Z AUTO 24012KT CAVOK 13/03 Q1013=

TAF

EFKT 202000Z NIL=

EFRO (22:50 UTC)

Rovaniemi Airport

METAR

EFRO 202250Z AUTO 22015KT CAVOK 09/03 Q1017=

TAF

EFRO 202030Z 2021/2121 22015KT CAVOK TEMPO 2108/2115 27018G30KT BECMG 2116/2118 24005KT=

EFKE (22:50 UTC)

Kemi-Tornio Airport

METAR

EFKE 202250Z AUTO 15003KT CAVOK 06/05 Q1018=

TAF

BR

EFKE 202030Z 2021/2024 18008KT CAVOK PROB30 2021/2024 2000 BR BKN002=

EFKS (22:50 UTC)

Kuusamo Airport

METAR

EFKS 202250Z AUTO 21006KT 170V240 CAVOK 11/03 Q1018=

TAF

EFKS 202000Z NIL=

EFOU (22:50 UTC)

Oulu Airport

METAR

EFOU 202250Z AUTO 23005KT CAVOK 11/04 Q1019=

TAF

EFOU 202030Z 2021/2121 24009KT CAVOK=

EFKI (22:50 UTC)

Kajaani Airport

METAR

EFKI 202250Z AUTO 22005KT 190V260 CAVOK 12/05 Q1021=

TAF

EFKI 202000Z NIL=

EFKK (22:50 UTC)

Kokkola-Pietarsaari/Kruunupyy Airport

METAR

EFKK 202250Z AUTO 16003KT CAVOK 10/04 Q1020=

TAF

EFKK 202022Z 2021/2023 17004KT CAVOK=

EFVA (22:50 UTC)

Vaasa Airport

METAR

EFVA 202250Z AUTO 19006KT 160V220 CAVOK 13/03 Q1020=

TAF

EFVA 202022Z 2021/2121 19008KT CAVOK TEMPO 2109/2115 24010G20KT=

EFKU (22:50 UTC)

Kuopio Airport

METAR

EFKU 202250Z AUTO 23007KT CAVOK 13/05 Q1023=

TAF

EFKU 202030Z 2021/2121 19005KT CAVOK=

EFJY (22:50 UTC)

Jyväskylä Airport

METAR

EFJY 202250Z AUTO VRB02KT CAVOK 12/03 Q1023=

TAF

EFJY 202024Z 2021/2121 23005KT CAVOK=

EFTP (22:50 UTC)

Tampere-Pirkkala Airport

METAR

EFTP 202250Z AUTO 20008KT CAVOK 13/03 Q1025=

TAF

EFTP 202024Z 2021/2121 22006KT CAVOK=

EFPO (22:50 UTC)

Pori Airport

METAR

EFPO 202250Z AUTO 16006KT CAVOK 13/04 Q1024=

TAF

EFPO 202000Z NIL=

EFTU (22:50 UTC)

Turku Airport

METAR

EFTU 202250Z AUTO VRB02KT CAVOK 11/06 Q1025=

TAF

EFTU 202022Z 2021/2121 19005KT CAVOK TEMPO 2111/2115 22010G20KT=

EFHK (22:50 UTC)

Helsinki-Vantaa Airport

METAR

EFHK 202250Z 21004KT CAVOK 10/04 Q1027 NOSIG=

TAF

EFHK 202022Z 2021/2121 23005KT CAVOK TEMPO 2111/2115 22010G20KT=

EFMA (22:50 UTC)

Mariehamn Airport

METAR

EFMA 202250Z AUTO 18003KT CAVOK 12/07 Q1025=

TAF

EFMA 202022Z 2021/2106 18004KT CAVOK=

EKSB (22:50 UTC)

Sønderborg Airport

METAR

EKSB 202250Z AUTO 11008KT 9999NDV NCD 12/08 Q1026=

TAF

Ingen TAF hittades.

EKSP (22:20 UTC)

Vojens Airport

METAR

EKSP 202220Z 10002KT CAVOK 10/09 Q1026=

TAF

EKSP 202020Z 2021/2118 10005KT 9999 SCT180 BECMG 2109/2112 13013KT=

EKEB (22:50 UTC)

Esbjerg Airport

METAR

EKEB 202250Z AUTO 10005KT 9999NDV NCD 11/07 Q1026=

TAF

EKEB 201721Z 2018/2022 12008KT CAVOK=

EKYT (22:50 UTC)

Aalborg Airport

METAR

EKYT 202250Z AUTO 09006KT 9999NDV NCD 12/09 Q1027=

TAF

EKYT 202019Z 2021/2118 VRB05KT 9999 FEW200 BECMG 2106/2109 13012KT=

EKKA (22:50 UTC)

Karup Airport

METAR

EKKA 202250Z AUTO 12002KT 9999NDV NCD 12/07 Q1026=

TAF

EKKA 202020Z 2021/2118 15005KT 9999 SCT180 BECMG 2112/2115 13010KT=

EKBI (22:50 UTC)

Billund Airport

METAR

EKBI 202250Z AUTO 11004KT 9999NDV NCD 09/07 Q1026=

TAF

EKBI 201701Z 2018/2118 08008KT CAVOK=

EKVD (22:50 UTC)

Kolding Airport

METAR

EKVD 202250Z AUTO 11006KT //// ///////// 12/08 Q1026=

TAF

Ingen TAF hittades.

EKCH (22:50 UTC)

Copenhagen Airport, Kastrup

METAR

EKCH 202250Z 11007KT CAVOK 11/05 Q1028 NOSIG=

TAF

EKCH 201701Z 2018/2118 17010KT CAVOK BECMG 2020/2023 10006KT=

EKRK (22:50 UTC)

Copenhagen Airport, Roskilde

METAR

EKRK 202250Z AUTO 10004KT 9999NDV NCD 09/05 Q1028=

TAF

EKRK 202001Z 2021/2106 12005KT CAVOK=

ENRY (22:50 UTC)

Moss flygplats, Rygge

METAR

ENRY 202250Z AUTO 18007KT 9999NDV NCD 13/11 Q1026=

TAF

ENRY 201700Z 2018/2118 20012KT CAVOK BECMG 2022/2024 VRB03KT=

ENGM (22:50 UTC)

Oslo flygplats, Gardermoen

METAR

ENGM 202250Z 18008KT CAVOK 13/07 Q1024=

TAF

ENGM 201700Z 2018/2118 20015KT CAVOK BECMG 2019/2021 18005KT=

ENTO (22:50 UTC)

Sandefjord flygplats, Torp

METAR

ENTO 202250Z AUTO 21007KT 9999 NCD 13/12 Q1026=

TAF

ENTO 201700Z 2018/2118 20015KT CAVOK BECMG 2019/2021 23005KT=

ENCN (22:50 UTC)

Kristiansand flygplats, Kjevik

METAR

ENCN 202250Z AUTO 06005KT 9999 NCD 09/08 Q1027=

TAF

ENCN 202000Z NIL=

ENZV (22:50 UTC)

Stavanger-Sola flygplats

METAR

ENZV 202250Z 15007KT CAVOK 13/06 Q1025=

TAF

ENZV 201700Z 2018/2118 18008KT 9999 FEW040 PROB30 2018/2021 3000 BCFG TEMPO 2109/2118 19018KT=

ENHD (22:50 UTC)

Haugesund flygplats, Karmøy

METAR

ENHD 202250Z AUTO 15010KT 9999 NCD 12/08 Q1024=

TAF

ENHD 202000Z NIL=

ENBR (22:50 UTC)

Bergen flygplats, Flesland

METAR

ENBR 202250Z 17011KT CAVOK 12/07 Q1024 RMK WIND 1200FT 17020KT=

TAF

ENBR 201700Z 2018/2118 19015KT 9999 FEW030 TEMPO 2021/2106 VRB05KT=

ENML (22:50 UTC)

Molde flygplats, Årø

METAR

ENML 202250Z AUTO 24003KT 190V330 9999NDV BKN120/// 16/04 Q1018=

TAF

ENML 202000Z NIL=

ENKB (22:50 UTC)

Kristiansund flygplats, Kvernberget

METAR

ENKB 202250Z AUTO 36007KT 9999 OVC098/// 14/06 Q1018 RMK WIND 745FT 36005KT=

TAF

ENKB 202000Z NIL=

ENRO (22:50 UTC)

Røros flygplats

METAR

ENRO 202250Z AUTO 26004KT 200V300 9999NDV SCT140/// 08/01 Q1021=

TAF

ENRO 202000Z NIL=

ENVA (22:50 UTC)

Trondheim flygplats, Værnes

METAR

ENVA 202250Z 20009KT CAVOK 17/03 Q1018 RMK WIND 670FT 21019KT=

TAF

ENVA 201700Z 2018/2118 VRB05KT CAVOK TEMPO 2112/2118 26010KT=

ENOL (22:50 UTC)

Ørland flygplats

METAR

ENOL 202250Z VRB02KT CAVOK 12/06 Q1019=

TAF

ENOL 201700Z 2018/2118 34010KT CAVOK BECMG 2020/2023 10007KT BECMG 2108/2111 34012KT=

ENBN (22:50 UTC)

Brønnøysund flygplats, Brønnøy

METAR

ENBN 202250Z AUTO 20015KT 9999NDV OVC088/// 13/06 Q1019=

TAF

ENBN 202000Z NIL=

ENRA (22:20 UTC)

Mo i Rana flygplats, Røssvoll

METAR

RA

ENRA 202220Z 30003KT 9999 -RA FEW003 SCT020 BKN030 09/08 Q1018=

TAF

ENRA 202000Z NIL=

ENBO (22:50 UTC)

Bodö flygplats

METAR

RA

ENBO 202250Z 23019KT 8000 RA FEW012 SCT020 BKN030 09/09 Q1014=

TAF

RA

ENBO CCA 201700Z 2018/2118 22025KT 9999 -RA SCT008 OVC020 TEMPO 2018/2106 22030G40KT 4000 RA BKN012 TEMPO 2106/2118 3000 RADZ SCT003 BKN006 BECMG 2107/2109 24015KT BECMG 2114/2116 24005KT=

ENAN (22:50 UTC)

Andøya flygplats

METAR

RA

ENAN 202250Z AUTO 26021G31KT 8000 -RA ///043/// 08/05 Q1010=

TAF

RA

ENAN 201700Z 2018/2118 20018KT 9999 -RA SCT006 BKN025 TEMPO 2018/2022 23022G32KT 3000 RADZ SCT003 BKN006 TEMPO 2104/2114 24020G35KT=

ENEV (22:50 UTC)

Harstad-Narvik flygplats

METAR

RA

ENEV 202250Z 24015G30KT 190V290 6000 -RA FEW003 SCT006 BKN010 09/08 Q1012 RMK WIND 1400FT 24034G46KT=

TAF

ENEV 202000Z NIL=

ENDU (22:50 UTC)

Bardufoss flygplats

METAR

RA

ENDU 202250Z AUTO 17004KT 140V210 9999 -RA FEW026/// BKN042/// 08/07 Q1011 RMK WIND 1100FT 21013KT WIND 2200FT 23019KT=

TAF

RA

ENDU 201700Z 2018/2118 25008KT 9999 -RA FEW012 BKN025 TEMPO 2018/2021 22015G25KT TEMPO 2018/2103 RA BKN012 TEMPO 2106/2112 27015G25KT=

ENTC (22:50 UTC)

Tromsø flygplats

METAR

SHRA

ENTC 202250Z 26011KT 230V290 9999 -SHRA FEW009 SCT016 BKN025 08/06 Q1010 RMK WIND 2600FT 24015KT=

TAF

ENTC 201700Z 2018/2118 20025KT 9999 SCT020 BKN030 TEMPO 2018/2021 20030G40KT BECMG 2022/2024 21015KT=

ENAT (22:50 UTC)

Alta flygplats

METAR

ENAT 202250Z AUTO 22005KT 9999 FEW170/// SCT200/// 11/03 Q1007 RMK WIND 700FT 23011KT=

TAF

ENAT 202000Z NIL=

ENNA (22:50 UTC)

Lakselv flygplats

METAR

ENNA 202250Z AUTO 19009KT 160V220 9999 OVC049/// 12/04 Q1007 RMK WIND 1800FT 25019KT=

TAF

ENNA 201700Z 2018/2118 19015KT 9999 SCT040 BKN060 TEMPO 2018/2021 23020G30KT=

ENHF (22:50 UTC)

Hammerfest flygplats

METAR

ENHF 202250Z 24018G29KT 210V280 9999 SCT017 BKN040 07/05 Q1007 RMK WIND 1254FT 28036KT=

TAF

ENHF 202000Z 2021/2106 23012KT 9999 FEW020 BKN040=

ENKR (22:50 UTC)

Kirkenes Airport, Høybuktmoen

METAR

ENKR 202250Z 25015KT CAVOK 11/05 Q1008 RMK WIND 731FT 25031KT=

TAF

ENKR 202000Z 2021/2106 21015KT 9999 SCT030 BKN050=

ENSB (22:50 UTC)

Svalbard Airport, Longyear

METAR

ENSB 202250Z 11017KT 9999 FEW018 BKN035 00/M03 Q0997 RMK WIND 1400FT 10020KT=

TAF

ENSB 201700Z 2018/2118 10012KT 9999 FEW010 BKN040=